createdAt,value
2017-09-21T00:01:37.201Z,5.03
2017-09-21T00:06:39.805Z,5.90
2017-09-21T00:11:42.401Z,4.30
2017-09-21T00:16:44.993Z,6.60
2017-09-21T00:21:47.602Z,9.63
2017-09-21T00:26:50.220Z,7.90
2017-09-21T00:31:52.813Z,5.90
2017-09-21T00:36:55.449Z,5.40
2017-09-21T00:41:58.810Z,9.10
2017-09-21T00:47:01.448Z,9.63
2017-09-21T00:52:04.062Z,11.50
2017-09-21T00:57:07.452Z,8.23
2017-09-21T01:02:10.070Z,8.17
2017-09-21T01:07:12.657Z,6.47
2017-09-21T01:12:15.253Z,7.90
2017-09-21T01:17:17.843Z,6.90
2017-09-21T01:22:20.433Z,6.30
2017-09-21T01:27:23.041Z,13.23
2017-09-21T01:32:25.681Z,6.93
2017-09-21T01:37:29.058Z,7.17
2017-09-21T01:42:31.659Z,10.93
2017-09-21T01:47:34.261Z,7.53
2017-09-21T01:52:36.849Z,8.53
2017-09-21T01:57:39.458Z,9.70
2017-09-21T02:02:42.069Z,9.20
2017-09-21T02:07:44.678Z,8.17
2017-09-21T02:12:47.303Z,16.53
2017-09-21T02:17:49.897Z,11.40
2017-09-21T02:22:52.485Z,9.13
2017-09-21T02:27:56.212Z,8.77
2017-09-21T02:32:58.795Z,8.83
2017-09-21T02:38:01.583Z,10.03
2017-09-21T02:43:04.186Z,8.90
2017-09-21T02:48:06.826Z,10.30
2017-09-21T02:53:09.420Z,9.67
2017-09-21T02:58:12.021Z,19.37
2017-09-21T03:03:14.609Z,11.30
2017-09-21T03:08:17.216Z,11.27
2017-09-21T03:13:19.826Z,9.50
2017-09-21T03:18:22.421Z,10.60
2017-09-21T03:23:25.804Z,12.97
2017-09-21T03:28:28.408Z,10.83
2017-09-21T03:33:31.010Z,12.23
2017-09-21T03:38:33.637Z,10.80
2017-09-21T03:43:36.994Z,12.23
2017-09-21T03:48:39.593Z,12.27
2017-09-21T03:53:42.186Z,15.67
2017-09-21T03:58:44.804Z,12.20
2017-09-21T04:03:47.426Z,14.63
2017-09-21T04:08:50.021Z,14.20
2017-09-21T04:13:52.630Z,12.73
2017-09-21T04:18:56.003Z,10.63
2017-09-21T04:23:58.601Z,13.50
2017-09-21T04:29:01.209Z,9.30
2017-09-21T04:34:03.809Z,12.17
2017-09-21T04:39:06.417Z,17.43
2017-09-21T04:44:09.040Z,14.57
2017-09-21T04:49:11.686Z,16.47
2017-09-21T04:54:14.306Z,15.87
2017-09-21T04:59:16.924Z,16.80
2017-09-21T05:04:19.577Z,16.60
2017-09-21T05:09:22.193Z,16.23
2017-09-21T05:14:24.801Z,41.83
2017-09-21T05:19:27.420Z,21.30
2017-09-21T05:24:30.034Z,24.17
2017-09-21T05:29:32.657Z,19.80
2017-09-21T05:34:35.285Z,16.60
2017-09-21T05:39:37.930Z,15.37
2017-09-21T05:44:40.573Z,19.10
2017-09-21T05:49:43.200Z,14.80
2017-09-21T05:54:45.826Z,14.20
2017-09-21T05:59:48.452Z,19.73
2017-09-21T06:04:51.138Z,17.90
2017-09-21T06:09:53.744Z,17.40
2017-09-21T06:14:56.366Z,28.40
2017-09-21T06:19:59.759Z,38.23
2017-09-21T06:25:02.409Z,29.37
2017-09-21T06:30:05.096Z,26.33
2017-09-21T06:35:07.750Z,29.40
2017-09-21T06:40:10.357Z,28.47
2017-09-21T06:45:12.990Z,30.40
2017-09-21T06:50:15.633Z,29.77
2017-09-21T06:55:18.250Z,38.23
2017-09-21T07:00:21.735Z,37.97
2017-09-21T07:05:24.380Z,34.93
2017-09-21T07:10:27.012Z,30.10
2017-09-21T07:15:29.653Z,32.97
2017-09-21T07:20:32.304Z,34.80
2017-09-21T07:25:34.953Z,39.53
2017-09-21T07:30:37.618Z,38.90
2017-09-21T07:35:41.010Z,42.67
2017-09-21T07:40:43.669Z,32.80
2017-09-21T07:45:46.322Z,28.37
2017-09-21T07:50:49.713Z,28.80
2017-09-21T07:55:52.328Z,32.27
2017-09-21T08:00:54.994Z,29.80
2017-09-21T08:05:57.646Z,35.93
2017-09-21T08:11:00.273Z,34.30
2017-09-21T08:16:02.908Z,38.70
2017-09-21T08:21:05.591Z,31.37
2017-09-21T08:26:08.234Z,40.10
2017-09-21T08:31:10.881Z,34.93
2017-09-21T08:36:13.526Z,35.77
2017-09-21T08:41:16.176Z,38.30
2017-09-21T08:46:18.822Z,39.10
2017-09-21T08:51:21.441Z,30.83
2017-09-21T08:56:24.853Z,29.43
2017-09-21T09:01:27.514Z,24.30
2017-09-21T09:06:30.144Z,22.60
2017-09-21T09:11:32.766Z,23.03
2017-09-21T09:16:35.389Z,24.20
2017-09-21T09:21:38.025Z,19.80
2017-09-21T09:26:40.679Z,21.13
2017-09-21T09:31:43.288Z,18.27
2017-09-21T09:36:45.906Z,20.60
2017-09-21T09:41:48.529Z,20.50
2017-09-21T09:46:51.190Z,21.60
2017-09-21T09:51:53.778Z,24.53
2017-09-21T09:56:56.476Z,16.97
2017-09-21T10:01:59.949Z,14.97
2017-09-21T10:07:02.618Z,15.00
2017-09-21T10:12:05.238Z,13.07
2017-09-21T10:17:07.879Z,15.63
2017-09-21T10:22:10.566Z,15.23
2017-09-21T10:27:13.184Z,14.53
2017-09-21T10:32:15.793Z,14.27
2017-09-21T10:37:18.433Z,12.43
2017-09-21T10:42:21.071Z,14.67
2017-09-21T10:47:23.700Z,12.93
2017-09-21T10:52:26.314Z,21.13
2017-09-21T10:57:28.937Z,11.53
2017-09-21T11:02:31.563Z,12.90
2017-09-21T11:07:34.169Z,15.03
2017-09-21T11:12:36.836Z,10.23
2017-09-21T11:17:39.461Z,11.00
2017-09-21T11:22:42.092Z,11.90
2017-09-21T11:27:44.746Z,11.70
2017-09-21T11:32:47.348Z,11.80
2017-09-21T11:37:49.951Z,10.10
2017-09-21T11:42:52.619Z,10.00
2017-09-21T11:47:55.978Z,12.43
2017-09-21T11:52:58.593Z,11.30
2017-09-21T11:58:01.214Z,12.00
2017-09-21T12:03:03.858Z,24.50
2017-09-21T12:08:06.490Z,9.67
2017-09-21T12:13:09.168Z,8.83
2017-09-21T12:18:11.789Z,13.43
2017-09-21T12:23:14.390Z,8.57
2017-09-21T12:28:16.991Z,8.60
2017-09-21T12:33:19.621Z,8.10
2017-09-21T12:38:22.240Z,7.43
2017-09-21T12:43:24.858Z,7.60
2017-09-21T12:48:27.483Z,8.53
2017-09-21T12:53:30.099Z,7.13
2017-09-21T12:58:32.729Z,6.43
2017-09-21T13:03:36.114Z,7.87
2017-09-21T13:08:38.732Z,7.30
2017-09-21T13:13:41.441Z,7.67
2017-09-21T13:18:44.810Z,6.60
2017-09-21T13:23:47.461Z,6.70
2017-09-21T13:28:50.059Z,11.73
2017-09-21T13:33:52.664Z,10.23
2017-09-21T13:38:56.050Z,15.73
2017-09-21T13:43:58.833Z,7.40
2017-09-21T13:49:01.469Z,6.90
2017-09-21T13:54:04.865Z,7.43
2017-09-21T13:59:07.571Z,8.43
2017-09-21T14:04:10.215Z,5.47
2017-09-21T14:09:13.652Z,4.60
2017-09-21T14:14:16.307Z,5.37
2017-09-21T14:19:19.760Z,5.23
2017-09-21T14:24:22.386Z,6.43
2017-09-21T14:29:25.032Z,5.17
2017-09-21T14:34:27.744Z,5.50
2017-09-21T14:39:31.142Z,4.70
2017-09-21T14:44:33.765Z,3.93
2017-09-21T14:49:36.403Z,6.67
2017-09-21T14:54:39.048Z,5.27
2017-09-21T14:59:41.684Z,7.30
2017-09-21T15:04:44.304Z,8.83
2017-09-21T15:09:46.906Z,5.27
2017-09-21T15:14:49.526Z,4.83
2017-09-21T15:19:52.189Z,7.77
2017-09-21T15:24:54.800Z,32.43
2017-09-21T15:29:57.427Z,5.63
2017-09-21T15:35:00.087Z,4.47
2017-09-21T15:40:02.781Z,4.50
2017-09-21T15:45:05.423Z,4.43
2017-09-21T15:50:08.038Z,5.23
2017-09-21T15:55:10.638Z,6.80
2017-09-21T16:00:14.025Z,4.20
2017-09-21T16:05:16.748Z,5.30
2017-09-21T16:10:19.401Z,5.37
2017-09-21T16:15:22.058Z,6.10
2017-09-21T16:20:25.535Z,6.70
2017-09-21T16:25:28.215Z,17.47
2017-09-21T16:30:30.901Z,8.57
2017-09-21T16:35:33.536Z,5.97
2017-09-21T16:40:36.212Z,5.00
2017-09-21T16:45:38.898Z,5.53
2017-09-21T16:50:41.528Z,6.87
2017-09-21T16:55:44.135Z,7.50
2017-09-21T17:00:46.794Z,5.37
2017-09-21T17:05:49.413Z,4.97
2017-09-21T17:10:52.817Z,4.93
2017-09-21T17:15:56.268Z,5.10
2017-09-21T17:20:58.858Z,4.70
2017-09-21T17:26:01.448Z,9.07
2017-09-21T17:31:04.100Z,13.60
2017-09-21T17:36:06.741Z,5.80
2017-09-21T17:41:10.333Z,7.10
2017-09-21T17:46:20.220Z,5.43
2017-09-21T17:51:23.034Z,6.50
2017-09-21T17:56:28.022Z,5.00
2017-09-21T18:01:32.587Z,7.03
2017-09-21T18:06:35.350Z,7.77
2017-09-21T18:11:38.811Z,6.17
2017-09-21T18:16:47.433Z,6.97
2017-09-21T18:21:55.147Z,6.53
2017-09-21T18:26:57.977Z,10.00
2017-09-21T18:32:00.869Z,17.73
2017-09-21T18:37:04.382Z,6.70
2017-09-21T18:42:07.070Z,8.57
2017-09-21T18:52:31.421Z,7.80
2017-09-21T19:02:52.058Z,10.13
2017-09-21T19:07:54.913Z,10.70
2017-09-21T19:12:58.405Z,9.30
2017-09-21T19:18:03.509Z,5.50
2017-09-21T19:23:16.302Z,7.70
2017-09-21T19:28:22.166Z,4.83
2017-09-21T19:33:24.870Z,8.70
2017-09-21T19:38:27.502Z,14.20
2017-09-21T19:43:30.177Z,12.27
2017-09-21T19:48:32.884Z,9.97
2017-09-21T19:53:35.543Z,6.00
2017-09-21T19:58:38.933Z,6.10
2017-09-21T20:03:41.809Z,9.13
2017-09-21T20:08:44.410Z,18.13
2017-09-21T20:13:47.095Z,11.07
2017-09-21T20:18:49.714Z,7.37
2017-09-21T20:23:52.370Z,6.73
2017-09-21T20:28:54.991Z,6.03
2017-09-21T20:33:57.610Z,7.73
2017-09-21T20:39:00.223Z,6.37
2017-09-21T20:44:02.880Z,6.90
2017-09-21T20:49:05.623Z,7.57
2017-09-21T20:54:08.556Z,6.13
2017-09-21T20:59:11.185Z,5.93
2017-09-21T21:04:13.847Z,9.27
2017-09-21T21:09:16.521Z,8.27
2017-09-21T21:14:19.184Z,8.00
2017-09-21T21:19:21.816Z,12.90
2017-09-21T21:24:24.445Z,7.37
2017-09-21T21:29:27.083Z,6.70
2017-09-21T21:34:29.693Z,13.70
2017-09-21T21:39:32.554Z,13.07
2017-09-21T21:44:35.947Z,10.37
2017-09-21T21:49:38.558Z,8.70
2017-09-21T21:54:41.172Z,11.23
2017-09-21T21:59:43.781Z,9.17
2017-09-21T22:04:46.375Z,9.90
2017-09-21T22:09:49.003Z,12.67
2017-09-21T22:14:51.606Z,10.00
2017-09-21T22:19:54.965Z,9.93
2017-09-21T22:24:57.565Z,7.47
2017-09-21T22:30:00.155Z,8.13
2017-09-21T22:35:02.765Z,9.00
2017-09-21T22:40:05.341Z,12.33
2017-09-21T22:45:07.977Z,8.40
2017-09-21T22:50:10.619Z,7.47
2017-09-21T22:55:13.989Z,10.73
2017-09-21T23:00:16.593Z,7.97
2017-09-21T23:05:19.201Z,9.17
2017-09-21T23:10:21.781Z,9.70
2017-09-21T23:15:24.373Z,7.60
2017-09-21T23:20:26.994Z,14.50
2017-09-21T23:25:29.589Z,8.30
2017-09-21T23:30:32.204Z,10.03
2017-09-21T23:35:34.802Z,9.73
2017-09-21T23:40:37.627Z,8.20
2017-09-21T23:45:40.231Z,19.43
2017-09-21T23:50:42.838Z,10.17
2017-09-21T23:55:45.438Z,10.27
